Time;durP1;ratioP1;P1;durP2;ratioP2;P2;SDS_P1;SDS_P2;PMS_P1;PMS_P2;Temp;Humidity;BMP_temperature;BMP_pressure;BME280_temperature;BME280_humidity;BME280_pressure;Samples;Min_cycle;Max_cycle;Signal;HPM_P1;HPM_P2
2022/04/18 00:00:06;;;;;;;4.00;2.20;;;;;;;4.08;49.36;99050.75;4379981;32;20121;-68
2022/04/18 00:02:34;;;;;;;3.53;1.55;;;;;;;4.09;49.28;99052.44;4380168;32;20128;-68
2022/04/18 00:05:02;;;;;;;4.03;1.95;;;;;;;4.13;49.49;99050.50;4379903;32;20138;-68
2022/04/18 00:07:29;;;;;;;3.47;2.15;;;;;;;4.17;49.25;99043.41;4380098;32;20099;-68
2022/04/18 00:09:57;;;;;;;3.00;1.80;;;;;;;4.17;49.41;99048.59;4380013;32;20091;-68
2022/04/18 00:12:24;;;;;;;3.15;1.77;;;;;;;4.23;49.01;99051.62;4379993;32;20112;-68
2022/04/18 00:14:51;;;;;;;2.35;1.50;;;;;;;4.29;49.18;99050.44;4380226;32;20499;-68
2022/04/18 00:17:18;;;;;;;5.43;2.05;;;;;;;4.33;48.80;99046.75;4379902;32;20121;-68
2022/04/18 00:19:46;;;;;;;5.15;2.65;;;;;;;4.31;49.06;99040.81;4380062;32;20120;-69
2022/04/18 00:22:13;;;;;;;2.92;1.75;;;;;;;4.30;49.07;99036.56;4379874;32;20445;-68
2022/04/18 00:24:40;;;;;;;3.35;1.90;;;;;;;4.32;48.68;99039.91;4379959;32;20156;-68
2022/04/18 00:27:07;;;;;;;1.70;1.27;;;;;;;4.41;48.74;99034.16;4379819;32;20126;-68
2022/04/18 00:29:34;;;;;;;2.08;1.40;;;;;;;4.50;48.59;99034.56;4380194;32;20091;-68
2022/04/18 00:32:02;;;;;;;5.37;2.05;;;;;;;4.51;48.10;99033.59;4379871;32;20141;-68
2022/04/18 00:34:29;;;;;;;3.42;1.67;;;;;;;4.52;48.20;99027.50;4379812;32;20109;-68
2022/04/18 00:36:56;;;;;;;6.18;2.17;;;;;;;4.51;48.62;99034.47;4379859;32;20103;-68
2022/04/18 00:39:23;;;;;;;3.62;2.08;;;;;;;4.44;48.96;99025.37;4379803;32;20095;-68
2022/04/18 00:41:51;;;;;;;5.90;2.60;;;;;;;4.40;49.11;99022.09;4379784;32;20090;-68
2022/04/18 00:44:18;;;;;;;3.75;1.70;;;;;;;4.35;49.33;99021.56;4379757;32;20538;-68
2022/04/18 00:46:45;;;;;;;2.65;1.90;;;;;;;4.32;49.47;99019.16;4379884;32;20172;-68
2022/04/18 00:49:12;;;;;;;5.40;2.00;;;;;;;4.29;49.29;99014.16;4380062;32;20125;-68
2022/04/18 00:51:40;;;;;;;2.83;2.00;;;;;;;4.29;49.61;99019.31;4379865;32;20109;-68
2022/04/18 00:54:08;;;;;;;3.17;1.80;;;;;;;4.29;49.95;99019.31;4379802;32;20079;-69
2022/04/18 00:56:36;;;;;;;4.85;2.12;;;;;;;4.25;49.86;99016.09;4366374;32;20106;-68
2022/04/18 00:59:03;;;;;;;3.08;1.90;;;;;;;4.19;50.10;99013.84;4379768;32;20125;-68
2022/04/18 01:01:30;;;;;;;4.37;2.28;;;;;;;4.18;49.97;99008.75;4379957;32;20449;-69
2022/04/18 01:03:58;;;;;;;3.45;1.90;;;;;;;4.15;50.26;99009.78;4379793;32;20087;-68
2022/04/18 01:06:25;;;;;;;3.20;2.00;;;;;;;4.16;50.41;99006.25;4379745;32;20091;-68
2022/04/18 01:08:52;;;;;;;4.07;1.80;;;;;;;4.19;50.29;99007.81;4379984;32;20103;-68
2022/04/18 01:11:20;;;;;;;3.37;1.67;;;;;;;4.17;50.30;99002.72;4379818;32;20098;-68
2022/04/18 01:13:49;;;;;;;2.95;1.80;;;;;;;4.24;50.15;99000.63;4379659;32;20094;-69
2022/04/18 01:16:17;;;;;;;2.72;1.50;;;;;;;4.19;50.23;98997.47;4374142;32;20095;-68
2022/04/18 01:18:49;;;;;;;4.62;1.77;;;;;;;4.15;50.47;98994.22;4379669;32;20098;-68
2022/04/18 01:21:17;;;;;;;2.65;1.75;;;;;;;4.14;50.84;98995.13;4379621;32;20097;-68
2022/04/18 01:23:46;;;;;;;6.20;2.20;;;;;;;4.17;50.46;98994.94;4379841;32;20113;-68
2022/04/18 01:29:03;;;;;;;1.98;1.17;;;;;;;4.20;50.58;98986.16;4379491;32;20094;-68
2022/04/18 01:31:35;;;;;;;2.90;1.73;;;;;;;4.15;50.43;98980.41;4379478;32;20141;-68
2022/04/18 01:34:04;;;;;;;3.12;1.60;;;;;;;4.18;50.50;98975.03;4379520;32;20094;-68
2022/04/18 01:36:32;;;;;;;3.15;1.58;;;;;;;4.21;50.67;98964.47;4379536;32;20102;-68
2022/04/18 01:38:59;;;;;;;2.67;1.65;;;;;;;4.19;50.74;98974.94;4379640;32;20595;-68
2022/04/18 01:41:27;;;;;;;2.97;1.65;;;;;;;4.21;50.66;98964.47;4379620;32;20425;-69
2022/04/18 01:43:55;;;;;;;2.80;1.50;;;;;;;4.19;50.68;98963.75;4379680;32;20091;-68
2022/04/18 01:46:22;;;;;;;4.37;1.98;;;;;;;4.15;50.71;98960.50;4379663;32;20102;-68
2022/04/18 01:48:52;;;;;;;1.90;1.30;;;;;;;4.17;50.54;98957.84;4379554;32;20421;-68
2022/04/18 01:51:20;;;;;;;2.50;1.70;;;;;;;4.22;50.00;98964.41;4379467;32;20099;-68
2022/04/18 01:53:53;;;;;;;3.05;1.50;;;;;;;4.19;50.19;98961.97;4379533;32;20407;-68
2022/04/18 01:56:20;;;;;;;4.95;1.67;;;;;;;4.23;50.27;98957.47;4379671;32;20397;-68
2022/04/18 01:58:48;;;;;;;4.35;1.62;;;;;;;4.25;50.49;98958.19;4379525;32;20114;-68
2022/04/18 02:01:17;;;;;;;2.90;1.52;;;;;;;4.23;50.53;98955.69;4379106;32;20116;-68
2022/04/18 02:03:45;;;;;;;2.42;1.40;;;;;;;4.27;50.33;98953.75;4379138;32;20094;-68
2022/04/18 02:06:14;;;;;;;3.08;1.50;;;;;;;4.26;50.26;98958.09;4379022;32;20122;-68
2022/04/18 02:08:41;;;;;;;4.97;1.95;;;;;;;4.28;50.28;98952.81;4379547;32;20121;-68
2022/04/18 02:11:09;;;;;;;3.80;1.35;;;;;;;4.36;50.34;98947.16;4378359;32;20157;-68
2022/04/18 02:13:36;;;;;;;3.28;1.50;;;;;;;4.29;50.38;98951.06;4379210;32;20105;-68
2022/04/18 02:16:04;;;;;;;2.85;1.50;;;;;;;4.27;50.44;98943.41;4379453;32;20177;-68
2022/04/18 02:18:32;;;;;;;2.08;1.00;;;;;;;4.27;50.67;98943.41;4379428;32;20095;-68
2022/04/18 02:20:59;;;;;;;3.22;1.45;;;;;;;4.22;50.86;98935.88;4379168;32;20119;-68
2022/04/18 02:23:26;;;;;;;4.55;1.58;;;;;;;4.22;50.85;98937.62;4379139;32;20083;-68
2022/04/18 02:25:54;;;;;;;2.55;1.30;;;;;;;4.23;50.90;98931.53;4378962;32;20102;-68
2022/04/18 02:28:21;;;;;;;2.08;1.58;;;;;;;4.24;50.75;98930.62;4379376;32;20107;-68
2022/04/18 02:30:49;;;;;;;2.65;1.62;;;;;;;4.19;50.58;98928.25;4378985;32;20099;-68
2022/04/18 02:33:18;;;;;;;2.50;1.33;;;;;;;4.22;50.84;98919.47;4379395;32;20094;-68
2022/04/18 02:35:46;;;;;;;2.15;1.30;;;;;;;4.28;50.89;98924.28;4379322;32;20103;-68
2022/04/18 02:38:14;;;;;;;2.53;1.40;;;;;;;4.30;50.63;98925.06;4378983;32;20103;-68
2022/04/18 02:40:41;;;;;;;2.47;1.60;;;;;;;4.26;50.93;98931.34;4379212;32;20098;-68
2022/04/18 02:43:09;;;;;;;2.33;1.65;;;;;;;4.35;50.95;98919.59;4378921;32;20082;-68
2022/04/18 02:45:36;;;;;;;4.37;1.67;;;;;;;4.27;51.15;98909.69;4379113;32;20223;-68
2022/04/18 02:48:05;;;;;;;2.53;1.60;;;;;;;4.31;51.11;98915.50;4379291;32;20493;-68
2022/04/18 02:50:32;;;;;;;2.85;1.67;;;;;;;4.23;50.98;98910.78;4379144;32;20091;-68
2022/04/18 02:53:00;;;;;;;1.62;1.20;;;;;;;4.30;50.76;98909.50;4379129;32;20107;-69
2022/04/18 02:55:29;;;;;;;2.85;1.60;;;;;;;4.27;51.11;98901.91;4379165;32;20460;-68
2022/04/18 02:57:56;;;;;;;2.55;1.33;;;;;;;4.24;51.89;98904.69;4379164;32;20099;-68
2022/04/18 03:00:23;;;;;;;2.05;1.37;;;;;;;4.21;52.06;98899.66;4379181;32;20090;-68
2022/04/18 03:02:51;;;;;;;2.28;1.45;;;;;;;4.12;52.30;98901.06;4378898;32;20094;-68
2022/04/18 03:05:18;;;;;;;2.70;1.52;;;;;;;4.16;51.68;98899.09;4378408;32;20142;-68
2022/04/18 03:07:45;;;;;;;4.22;1.48;;;;;;;4.16;51.86;98902.53;4378858;32;20099;-68
2022/04/18 03:10:14;;;;;;;1.85;1.40;;;;;;;4.14;52.27;98890.59;4372758;32;20078;-68
2022/04/18 03:12:41;;;;;;;3.80;1.70;;;;;;;4.23;52.07;98897.81;4378635;32;20409;-68
2022/04/18 03:15:08;;;;;;;2.83;1.62;;;;;;;4.17;52.21;98895.59;4378632;32;20426;-68
2022/04/18 03:17:36;;;;;;;2.87;1.50;;;;;;;4.23;51.99;98897.81;4378706;32;20121;-68
2022/04/18 03:20:03;;;;;;;3.70;1.80;;;;;;;4.21;51.43;98889.28;4378483;32;20086;-68
2022/04/18 03:22:31;;;;;;;3.55;1.60;;;;;;;4.22;51.91;98885.78;4379925;32;20449;-68
2022/04/18 03:24:59;;;;;;;2.10;1.30;;;;;;;4.21;51.96;98892.72;4380592;32;20103;-68
2022/04/18 03:27:26;;;;;;;3.53;2.37;;;;;;;4.23;52.03;98884.84;4380436;32;20094;-68
2022/04/18 03:29:54;;;;;;;2.70;1.73;;;;;;;4.14;52.45;98888.00;4380458;32;20083;-68
2022/04/18 03:32:21;;;;;;;3.08;1.58;;;;;;;4.13;52.09;98886.34;4380574;32;20161;-68
2022/04/18 03:34:49;;;;;;;2.62;1.52;;;;;;;4.12;52.24;98882.06;4380221;32;20114;-68
2022/04/18 03:40:16;;;;;;;2.58;1.70;;;;;;;4.29;51.88;98883.66;4363236;32;20107;-68
2022/04/18 03:42:44;;;;;;;2.62;1.80;;;;;;;4.27;52.19;98883.75;4362958;32;20546;-68
2022/04/18 03:45:12;;;;;;;2.12;1.40;;;;;;;4.23;52.30;98879.66;4363416;32;20126;-68
2022/04/18 03:47:39;;;;;;;5.55;1.98;;;;;;;4.24;52.22;98870.97;4363049;32;20127;-68
2022/04/18 03:50:07;;;;;;;1.98;1.55;;;;;;;4.26;51.85;98874.28;4363188;32;20099;-68
2022/04/18 03:52:35;;;;;;;3.55;1.73;;;;;;;4.22;52.03;98875.41;4363250;32;20166;-68
2022/04/18 03:55:06;;;;;;;3.28;1.60;;;;;;;4.21;51.82;98871.13;4363382;32;20217;-68
2022/04/18 03:57:34;;;;;;;3.85;2.08;;;;;;;4.23;52.22;98864.09;4351020;32;20190;-68
2022/04/18 04:00:02;;;;;;;3.25;1.70;;;;;;;4.28;52.37;98856.88;4363311;32;20125;-68
2022/04/18 04:02:39;;;;;;;3.15;1.35;;;;;;;4.26;52.19;98864.75;4362823;32;20442;-68
2022/04/18 04:05:07;;;;;;;3.08;1.75;;;;;;;4.30;52.27;98860.22;4362969;32;20186;-68
2022/04/18 04:07:35;;;;;;;2.30;1.70;;;;;;;4.29;52.18;98868.91;4363070;32;20560;-68
2022/04/18 04:10:04;;;;;;;2.05;1.58;;;;;;;4.33;52.12;98860.03;4363231;32;20468;-68
2022/04/18 04:12:31;;;;;;;3.67;1.60;;;;;;;4.40;52.21;98861.28;4363215;32;20091;-68
2022/04/18 04:14:59;;;;;;;2.90;1.70;;;;;;;4.38;52.40;98857.16;4364730;32;20559;-68
2022/04/18 04:17:29;;;;;;;3.53;1.73;;;;;;;4.40;52.55;98858.69;4379991;32;20129;-68
2022/04/18 04:20:17;;;;;;;4.70;1.80;;;;;;;4.36;53.15;98858.97;4380317;32;20109;-68
2022/04/18 04:22:45;;;;;;;3.37;1.77;;;;;;;4.33;52.89;98861.75;4379917;32;20094;-68
2022/04/18 04:25:15;;;;;;;2.30;1.80;;;;;;;4.36;52.95;98859.84;4380168;32;20154;-69
2022/04/18 04:27:42;;;;;;;2.87;1.58;;;;;;;4.43;52.57;98858.50;4380067;32;20091;-68
2022/04/18 04:30:10;;;;;;;5.97;1.90;;;;;;;4.40;52.77;98855.28;4380178;32;20116;-68
2022/04/18 04:32:38;;;;;;;2.22;1.60;;;;;;;4.39;53.10;98854.44;4379847;32;20086;-68
2022/04/18 04:35:06;;;;;;;4.00;2.12;;;;;;;4.47;52.66;98860.91;4379680;32;20106;-68
2022/04/18 04:37:33;;;;;;;2.58;1.75;;;;;;;4.51;52.27;98862.38;4379921;32;20390;-68
2022/04/18 04:40:04;;;;;;;3.05;2.12;;;;;;;4.59;52.47;98862.75;4366778;32;20582;-68
2022/04/18 04:42:32;;;;;;;2.80;1.80;;;;;;;4.58;52.15;98853.28;4379383;32;20154;-68
2022/04/18 04:44:59;;;;;;;1.90;1.50;;;;;;;4.61;52.42;98858.28;4379862;32;20469;-68
2022/04/18 04:47:28;;;;;;;4.55;1.70;;;;;;;4.65;52.26;98861.50;4378635;32;20129;-68
2022/04/18 04:49:55;;;;;;;2.60;1.58;;;;;;;4.64;52.00;98855.50;4379739;32;20094;-68
2022/04/18 04:52:23;;;;;;;4.25;1.60;;;;;;;4.74;52.16;98851.38;4379927;32;20492;-68
2022/04/18 04:54:50;;;;;;;4.30;2.00;;;;;;;4.87;51.77;98850.59;4379963;32;20103;-68
2022/04/18 04:57:18;;;;;;;2.78;2.05;;;;;;;4.96;51.54;98850.00;4379862;32;20186;-68
2022/04/18 04:59:47;;;;;;;2.58;1.60;;;;;;;4.92;51.66;98845.94;4379882;32;20149;-68
2022/04/18 05:02:14;;;;;;;2.90;1.55;;;;;;;4.97;52.20;98849.06;4379764;32;20090;-68
2022/04/18 05:04:42;;;;;;;2.37;1.45;;;;;;;4.93;51.91;98845.00;4379815;32;20126;-68
2022/04/18 05:07:10;;;;;;;4.43;1.80;;;;;;;4.96;51.95;98843.03;4379917;32;20543;-68
2022/04/18 05:09:38;;;;;;;4.20;1.48;;;;;;;5.04;51.89;98846.91;4379920;32;20113;-69
2022/04/18 05:12:08;;;;;;;2.47;1.45;;;;;;;5.14;52.00;98847.97;4379847;32;20090;-68
2022/04/18 05:14:35;;;;;;;4.12;1.75;;;;;;;5.20;51.89;98850.16;4379928;32;20169;-68
2022/04/18 05:17:03;;;;;;;2.75;1.80;;;;;;;5.30;51.99;98845.22;4379774;32;20142;-68
2022/04/18 05:19:30;;;;;;;2.67;1.70;;;;;;;5.33;52.75;98842.41;4379767;32;20249;-68
2022/04/18 05:21:58;;;;;;;4.03;1.65;;;;;;;5.50;52.73;98844.69;4379676;32;20082;-68
2022/04/18 05:24:26;;;;;;;3.42;2.00;;;;;;;5.50;52.52;98842.09;4379706;32;20150;-68
2022/04/18 05:26:54;;;;;;;3.20;2.20;;;;;;;5.55;52.23;98843.56;4379846;32;20503;-68
2022/04/18 05:29:21;;;;;;;4.10;2.10;;;;;;;5.60;51.94;98841.47;4379768;32;20090;-68
2022/04/18 05:31:49;;;;;;;2.17;1.45;;;;;;;5.61;51.66;98843.13;4379709;32;20094;-68
2022/04/18 05:34:16;;;;;;;3.28;1.60;;;;;;;5.63;51.72;98841.25;4379873;32;20098;-68
2022/04/18 05:36:44;;;;;;;4.75;2.00;;;;;;;5.62;51.85;98839.62;4379719;32;20152;-68
2022/04/18 05:39:13;;;;;;;2.40;2.00;;;;;;;5.64;50.84;98838.56;4379842;32;20142;-68
2022/04/18 05:41:41;;;;;;;4.35;1.62;;;;;;;5.71;50.75;98840.72;4379578;32;20165;-68
2022/04/18 05:44:11;;;;;;;4.03;2.30;;;;;;;5.76;50.86;98839.50;4379274;32;20091;-68
2022/04/18 05:46:40;;;;;;;2.60;2.10;;;;;;;5.81;51.17;98840.03;4378960;32;20103;-68
2022/04/18 05:49:07;;;;;;;3.47;2.08;;;;;;;5.94;50.41;98842.59;4379604;32;20078;-68
2022/04/18 05:51:37;;;;;;;3.85;1.70;;;;;;;5.99;50.08;98845.75;4379389;32;20094;-68
2022/04/18 05:54:04;;;;;;;3.90;1.90;;;;;;;6.10;49.82;98841.56;4379521;32;20424;-68
2022/04/18 05:56:32;;;;;;;5.68;2.05;;;;;;;5.97;50.89;98842.41;4379378;32;20102;-68
2022/04/18 05:59:00;;;;;;;6.25;2.00;;;;;;;6.04;50.54;98841.06;4379617;32;20082;-68
2022/04/18 06:01:29;;;;;;;3.70;1.90;;;;;;;6.26;50.23;98849.16;4379276;32;20083;-68
2022/04/18 06:05:25;;;;;;;3.08;1.85;;;;;;;6.88;48.27;98841.19;4523078;31;153898;-68
2022/04/18 06:07:53;;;;;;;7.15;1.90;;;;;;;6.88;48.27;98841.19;4513271;31;20114;-68
2022/04/18 06:10:21;;;;;;;3.58;2.25;;;;;;;6.47;49.07;98841.59;4513278;31;20121;-68
2022/04/18 06:12:49;;;;;;;5.68;2.58;;;;;;;6.52;48.43;98840.31;4512848;31;20142;-68
2022/04/18 06:15:17;;;;;;;4.15;2.25;;;;;;;6.71;48.77;98839.00;4512950;31;20100;-68
2022/04/18 06:17:44;;;;;;;3.92;1.77;;;;;;;6.57;48.22;98838.22;4513206;31;20140;-68
2022/04/18 06:20:11;;;;;;;5.95;2.30;;;;;;;6.82;48.13;98836.44;4513089;31;20430;-68
2022/04/18 06:22:39;;;;;;;3.10;2.28;;;;;;;6.77;47.31;98838.56;4513122;31;20107;-68
2022/04/18 06:25:06;;;;;;;4.25;2.30;;;;;;;6.86;47.35;98837.06;4512964;31;20374;-68
2022/04/18 06:27:34;;;;;;;5.25;2.20;;;;;;;6.87;47.77;98841.31;4513364;31;20115;-68
2022/04/18 06:30:01;;;;;;;5.18;2.58;;;;;;;7.02;47.77;98845.38;4512673;31;20096;-68
2022/04/18 06:32:35;;;;;;;2.67;1.90;;;;;;;6.98;47.10;98843.97;4512735;31;20168;-68
2022/04/18 06:35:04;;;;;;;4.80;2.65;;;;;;;7.00;47.28;98844.69;4512706;31;20095;-68
2022/04/18 06:37:32;;;;;;;7.65;2.85;;;;;;;7.23;46.61;98844.75;4513086;31;20099;-68
2022/04/18 06:39:59;;;;;;;4.62;2.20;;;;;;;7.32;46.53;98849.28;4512916;31;20076;-68
2022/04/18 06:42:27;;;;;;;4.40;2.22;;;;;;;7.21;46.61;98842.28;4513065;31;20088;-68
2022/04/18 06:44:54;;;;;;;4.55;2.12;;;;;;;7.28;46.77;98847.84;4512760;31;20159;-68
2022/04/18 06:47:21;;;;;;;6.53;2.42;;;;;;;7.09;46.71;98837.97;4512683;31;20490;-68
2022/04/18 06:49:50;;;;;;;4.68;2.50;;;;;;;7.12;46.48;98848.16;4512877;31;20095;-68
2022/04/18 06:52:23;;;;;;;2.50;1.98;;;;;;;7.04;47.47;98842.66;4512935;31;20072;-68
2022/04/18 06:54:56;;;;;;;4.43;2.55;;;;;;;7.17;47.22;98845.22;4512941;31;20111;-68
2022/04/18 06:57:23;;;;;;;5.10;2.55;;;;;;;7.16;47.38;98849.59;4512751;31;20096;-69
2022/04/18 06:59:53;;;;;;;7.97;2.65;;;;;;;7.09;47.12;98844.00;4512807;31;20525;-69
2022/04/18 07:02:21;;;;;;;5.43;2.60;;;;;;;7.21;46.89;98844.06;4512613;31;20492;-68
2022/04/18 07:04:50;;;;;;;4.80;2.25;;;;;;;7.28;47.10;98842.63;4512511;31;20152;-68
2022/04/18 07:07:17;;;;;;;6.35;2.90;;;;;;;7.24;46.35;98847.25;4512467;31;20457;-68
2022/04/18 07:09:44;;;;;;;5.55;2.42;;;;;;;7.36;45.90;98844.66;4512688;31;20092;-68
2022/04/18 07:12:11;;;;;;;2.70;1.85;;;;;;;7.48;45.72;98843.78;4512627;31;20122;-68
2022/04/18 07:14:39;;;;;;;3.00;2.12;;;;;;;7.69;45.62;98846.53;4511704;31;20159;-68
2022/04/18 07:17:07;;;;;;;6.93;2.35;;;;;;;8.00;44.62;98850.19;4501634;31;20248;-68
2022/04/18 07:19:36;;;;;;;3.20;2.33;;;;;;;7.57;45.50;98840.47;4501696;31;20159;-68
2022/04/18 07:22:04;;;;;;;6.72;2.62;;;;;;;7.77;46.78;98851.16;4501967;31;20100;-68
2022/04/18 07:24:34;;;;;;;3.53;2.17;;;;;;;7.84;44.63;98841.91;4501681;31;20116;-68
2022/04/18 07:27:03;;;;;;;3.62;1.60;;;;;;;8.25;44.38;98847.47;4502084;31;20188;-68
2022/04/18 07:29:31;;;;;;;3.78;2.03;;;;;;;8.50;44.75;98844.59;4501644;31;20100;-68
2022/04/18 07:31:58;;;;;;;3.25;2.00;;;;;;;8.57;44.37;98844.13;4501739;31;20167;-68
2022/04/18 07:34:26;;;;;;;3.50;2.25;;;;;;;8.42;44.23;98836.53;4501930;31;20100;-68
2022/04/18 07:36:53;;;;;;;3.75;2.17;;;;;;;8.58;45.01;98838.78;4502074;31;20100;-68
2022/04/18 07:39:21;;;;;;;6.80;2.67;;;;;;;8.31;46.43;98837.38;4501810;31;20100;-68
2022/04/18 07:41:48;;;;;;;3.70;2.08;;;;;;;8.46;44.80;98835.37;4501877;31;20171;-69
2022/04/18 07:44:15;;;;;;;6.20;2.92;;;;;;;8.33;45.50;98834.66;4501602;31;20099;-68
2022/04/18 07:46:43;;;;;;;2.60;2.20;;;;;;;8.44;45.18;98832.03;4501942;31;20475;-69
2022/04/18 07:49:10;;;;;;;3.37;2.12;;;;;;;8.69;45.85;98835.28;4501835;31;20513;-68
2022/04/18 07:51:42;;;;;;;3.12;2.00;;;;;;;8.62;45.51;98840.19;4501798;31;20153;-69
2022/04/18 07:54:14;;;;;;;4.57;2.20;;;;;;;8.90;43.16;98834.53;4501806;31;20096;-68
2022/04/18 07:56:43;;;;;;;3.20;1.98;;;;;;;9.16;42.23;98829.75;4501783;31;20096;-68
2022/04/18 07:59:11;;;;;;;3.05;1.83;;;;;;;9.11;42.14;98818.88;4501759;31;20100;-68
2022/04/18 08:01:38;;;;;;;7.03;3.28;;;;;;;8.73;42.09;98828.06;4501668;31;20373;-68
2022/04/18 08:04:06;;;;;;;4.25;2.40;;;;;;;8.52;44.37;98820.97;4501241;31;20123;-68
2022/04/18 08:06:34;;;;;;;4.80;2.67;;;;;;;8.93;45.15;98829.03;4501679;31;20563;-68
2022/04/18 08:09:02;;;;;;;5.18;2.60;;;;;;;8.38;45.29;98826.47;4501678;31;20152;-68
2022/04/18 08:11:30;;;;;;;4.72;2.35;;;;;;;8.50;45.03;98823.72;4501628;31;20489;-68
2022/04/18 08:13:58;;;;;;;3.00;1.98;;;;;;;8.68;46.23;98818.81;4501668;31;20105;-68
2022/04/18 08:16:27;;;;;;;3.97;2.30;;;;;;;8.51;46.97;98821.97;4501421;31;20580;-68
2022/04/18 08:18:55;;;;;;;3.40;2.10;;;;;;;8.84;47.09;98817.56;4501677;31;20119;-68
2022/04/18 08:21:22;;;;;;;3.80;2.35;;;;;;;9.47;46.83;98811.53;4501443;31;20426;-68
2022/04/18 08:23:51;;;;;;;3.67;2.20;;;;;;;9.75;45.44;98802.19;4501552;31;20095;-68
2022/04/18 08:26:22;;;;;;;3.72;2.40;;;;;;;9.39;45.91;98807.78;4501035;31;20095;-68
2022/04/18 08:28:51;;;;;;;4.87;2.30;;;;;;;9.47;45.14;98796.66;4500890;31;20240;-68
2022/04/18 08:31:19;;;;;;;5.72;2.53;;;;;;;9.74;45.73;98785.66;4501349;31;20418;-68
2022/04/18 08:33:46;;;;;;;3.50;1.80;;;;;;;10.34;46.29;98786.69;4501236;31;20092;-68
2022/04/18 08:36:14;;;;;;;3.22;2.12;;;;;;;10.33;43.53;98787.63;4501255;31;20212;-68
2022/04/18 08:38:41;;;;;;;3.62;2.12;;;;;;;10.59;44.93;98786.16;4501284;31;20122;-68
2022/04/18 08:41:13;;;;;;;3.60;2.53;;;;;;;10.34;41.32;98787.53;4501055;31;20159;-68
2022/04/18 08:43:42;;;;;;;3.83;1.98;;;;;;;10.54;41.13;98782.31;4487165;31;20112;-68
2022/04/18 08:46:09;;;;;;;4.72;2.70;;;;;;;10.33;41.88;98780.63;4501284;31;20116;-68
2022/04/18 08:54:09;;;;;;;5.45;1.98;;;;;;;10.18;40.16;98769.69;4501152;31;20114;-68
2022/04/18 08:56:37;;;;;;;5.12;2.28;;;;;;;10.09;40.68;98773.09;4500825;31;20148;-68
2022/04/18 08:59:04;;;;;;;2.95;1.98;;;;;;;10.65;41.27;98766.47;4501328;31;20437;-68
2022/04/18 09:01:33;;;;;;;3.78;1.98;;;;;;;10.62;40.52;98761.50;4500986;31;20100;-68
2022/04/18 09:04:01;;;;;;;3.20;2.35;;;;;;;11.09;41.07;98764.22;4501041;31;20115;-68
2022/04/18 09:06:30;;;;;;;2.60;2.00;;;;;;;11.73;39.75;98764.44;4501205;31;20496;-68
2022/04/18 09:09:01;;;;;;;4.85;2.33;;;;;;;11.95;41.27;98762.47;4501163;31;20099;-68
2022/04/18 09:11:31;;;;;;;4.45;2.90;;;;;;;11.75;39.75;98761.69;4501163;31;20139;-68
2022/04/18 09:14:07;;;;;;;5.50;2.42;;;;;;;11.47;42.06;98759.03;4501154;31;20092;-68
2022/04/18 09:16:36;;;;;;;4.72;2.28;;;;;;;11.56;39.35;98759.97;4500807;31;20092;-68
2022/04/18 09:19:12;;;;;;;7.30;2.17;;;;;;;11.58;40.86;98758.03;4500892;31;20083;-68
2022/04/18 09:21:55;;;;;;;7.30;2.20;;;;;;;11.40;39.30;98763.19;4501211;31;20080;-68
2022/04/18 09:24:32;;;;;;;2.87;1.92;;;;;;;11.78;38.89;98756.97;4500958;31;20561;-68
2022/04/18 09:27:09;;;;;;;2.67;1.87;;;;;;;11.98;35.87;98760.38;4501069;31;20084;-68
2022/04/18 09:29:40;;;;;;;2.72;1.67;;;;;;;11.64;34.21;98749.56;4500969;31;20508;-68
2022/04/18 09:32:10;;;;;;;4.22;2.40;;;;;;;11.54;33.07;98747.00;4500651;31;20107;-68
2022/04/18 09:34:44;;;;;;;5.72;2.60;;;;;;;11.76;33.56;98737.91;4500971;31;20096;-68
2022/04/18 09:37:19;;;;;;;3.72;2.55;;;;;;;11.71;33.42;98745.41;4500692;31;20521;-68
2022/04/18 09:39:54;;;;;;;2.62;2.00;;;;;;;11.07;33.47;98747.00;4500632;31;20114;-68
2022/04/18 09:42:24;;;;;;;4.10;1.77;;;;;;;10.88;33.29;98739.97;4500528;31;20080;-68
2022/04/18 09:44:53;;;;;;;3.70;1.90;;;;;;;11.24;33.03;98737.56;4500766;31;20092;-68
2022/04/18 09:47:22;;;;;;;2.47;1.85;;;;;;;11.36;33.36;98737.25;4500500;31;20511;-68
2022/04/18 09:49:50;;;;;;;3.87;1.90;;;;;;;11.15;33.77;98726.94;4500850;31;20095;-68
2022/04/18 09:52:20;;;;;;;3.35;1.83;;;;;;;11.32;34.34;98721.94;4500561;31;20148;-68
2022/04/18 09:54:55;;;;;;;4.15;2.28;;;;;;;11.37;35.08;98717.09;4500762;31;20119;-68
2022/04/18 09:57:28;;;;;;;4.32;2.10;;;;;;;11.24;34.45;98712.16;4500236;31;20175;-68
2022/04/18 09:59:57;;;;;;;2.90;1.95;;;;;;;11.72;36.27;98710.31;4500534;31;20551;-68
2022/04/18 10:02:25;;;;;;;3.75;2.25;;;;;;;11.86;37.14;98709.00;4500017;31;20112;-68
2022/04/18 10:04:53;;;;;;;2.97;1.83;;;;;;;12.06;37.27;98712.37;4500576;31;20112;-68
2022/04/18 10:07:20;;;;;;;5.80;2.40;;;;;;;12.45;37.40;98696.31;4500321;31;20156;-68
2022/04/18 10:09:48;;;;;;;3.00;1.92;;;;;;;12.56;37.63;98688.19;4500341;31;20099;-68
2022/04/18 10:12:16;;;;;;;7.97;2.28;;;;;;;13.07;36.85;98684.97;4500372;31;20088;-68
2022/04/18 10:14:43;;;;;;;4.35;2.50;;;;;;;12.70;35.27;98688.63;4500431;31;20175;-68
2022/04/18 10:17:11;;;;;;;4.47;2.58;;;;;;;12.03;38.85;98694.28;4499939;31;20096;-68
2022/04/18 10:19:47;;;;;;;3.55;2.75;;;;;;;11.96;39.66;98693.22;4500304;31;20484;-68
2022/04/18 10:22:42;;;;;;;4.05;2.05;;;;;;;11.79;36.54;98694.81;4499106;31;20119;-68
2022/04/18 10:25:21;;;;;;;2.90;2.10;;;;;;;12.51;37.50;98682.59;4499993;31;20434;-68
2022/04/18 10:27:48;;;;;;;3.83;2.28;;;;;;;12.86;35.95;98680.88;4489663;31;20453;-68
2022/04/18 10:30:16;;;;;;;6.65;2.53;;;;;;;12.46;38.16;98678.75;4484175;32;20096;-68
2022/04/18 10:32:46;;;;;;;3.83;2.58;;;;;;;12.40;36.43;98682.84;4482495;32;20127;-68
2022/04/18 10:35:14;;;;;;;6.82;2.53;;;;;;;12.20;37.71;98677.72;4483040;32;20130;-68
2022/04/18 10:37:42;;;;;;;4.18;2.00;;;;;;;12.22;36.24;98670.50;4484107;31;20404;-68
2022/04/18 10:40:10;;;;;;;2.85;1.60;;;;;;;11.09;34.30;98667.22;4484016;31;20088;-68
2022/04/18 10:42:40;;;;;;;2.28;1.40;;;;;;;10.60;32.39;98677.00;4483829;32;20123;-68
2022/04/18 10:45:18;;;;;;;1.60;1.50;;;;;;;10.38;31.68;98676.28;4484083;31;20164;-68
2022/04/18 10:48:01;;;;;;;3.03;1.70;;;;;;;10.18;32.69;98672.81;4483989;31;20111;-68
2022/04/18 10:50:38;;;;;;;3.97;1.70;;;;;;;10.10;32.44;98667.44;4484584;31;20087;-68
2022/04/18 10:53:13;;;;;;;3.42;1.42;;;;;;;9.80;32.83;98673.59;4486054;31;20155;-68
2022/04/18 10:56:01;;;;;;;2.22;1.30;;;;;;;9.79;32.49;98669.31;4486126;31;20465;-68
2022/04/18 10:58:35;;;;;;;3.25;2.00;;;;;;;9.70;31.65;98668.34;4485925;31;20092;-68
2022/04/18 11:01:06;;;;;;;2.75;1.75;;;;;;;10.19;32.70;98663.16;4486112;31;20159;-68
2022/04/18 11:03:36;;;;;;;2.00;1.40;;;;;;;10.54;31.37;98651.34;4485804;31;20084;-68
2022/04/18 11:06:16;;;;;;;2.90;1.50;;;;;;;11.40;31.17;98647.78;4486000;32;20160;-68
2022/04/18 11:09:07;;;;;;;4.72;1.75;;;;;;;12.28;31.70;98641.97;4486072;31;20088;-70
2022/04/18 11:11:44;;;;;;;7.25;2.62;;;;;;;12.33;33.58;98642.38;4485990;32;20164;-70
2022/04/18 11:14:24;;;;;;;4.32;2.80;;;;;;;12.42;33.30;98630.94;4486068;31;20118;-70
2022/04/18 11:16:56;;;;;;;4.32;2.58;;;;;;;12.51;36.49;98630.03;4485733;31;20134;-70
2022/04/18 11:19:42;;;;;;;5.22;2.20;;;;;;;12.52;38.25;98634.31;4485958;31;20142;-70
2022/04/18 11:22:16;;;;;;;4.00;2.53;;;;;;;12.33;37.20;98626.63;4485890;32;20099;-70
2022/04/18 11:24:46;;;;;;;3.65;2.50;;;;;;;12.08;39.57;98626.38;4485671;31;21137;-70
2022/04/18 11:27:14;;;;;;;3.37;2.35;;;;;;;12.02;39.23;98632.22;4485830;31;20429;-70
2022/04/18 11:29:43;;;;;;;3.30;2.65;;;;;;;11.86;37.41;98628.44;4485733;31;20154;-70
2022/04/18 11:32:15;;;;;;;4.85;2.60;;;;;;;11.68;38.37;98635.47;4485534;31;20473;-70
2022/04/18 11:34:49;;;;;;;4.32;2.67;;;;;;;11.46;39.86;98642.78;4485873;31;20076;-70
2022/04/18 11:37:33;;;;;;;6.85;2.62;;;;;;;10.80;39.17;98641.09;4485778;31;20087;-70
2022/04/18 11:40:01;;;;;;;;;;;;;;;10.81;40.11;98653.25;4486200;31;20639;-70
2022/04/18 11:42:30;;;;;;;2.55;2.20;;;;;;;10.77;41.39;98642.19;4485871;31;19995;-70
2022/04/18 11:44:59;;;;;;;4.12;2.78;;;;;;;10.70;41.00;98645.53;4485830;31;20148;-70
2022/04/18 11:47:34;;;;;;;5.15;2.62;;;;;;;10.47;38.61;98651.87;4485787;31;20092;-70
2022/04/18 11:50:02;;;;;;;2.83;1.90;;;;;;;10.13;40.86;98654.09;4485698;31;20110;-70
2022/04/18 11:52:32;;;;;;;12.37;6.97;;;;;;;9.53;38.97;98646.28;4485756;31;20114;-70
2022/04/18 11:55:17;;;;;;;4.10;2.10;;;;;;;8.82;41.05;98660.13;4485741;31;20111;-70
2022/04/18 11:57:47;;;;;;;3.78;2.25;;;;;;;8.69;44.56;98679.44;4485762;31;20100;-70
2022/04/18 12:06:44;;;;;;;3.33;2.17;;;;;;;8.65;46.22;98651.91;4485388;31;20642;-70